createdAt,value
2018-11-23T00:00:32.092Z,26.97
2018-11-23T00:03:03.017Z,25.20
2018-11-23T00:05:32.411Z,27.57
2018-11-23T00:08:01.764Z,25.23
2018-11-23T00:10:32.147Z,26.40
2018-11-23T00:13:02.630Z,29.10
2018-11-23T00:15:31.282Z,28.37
2018-11-23T00:18:00.443Z,30.87
2018-11-23T00:20:31.086Z,28.27
2018-11-23T00:23:00.446Z,26.73
2018-11-23T00:25:30.823Z,27.33
2018-11-23T00:27:59.650Z,27.73
2018-11-23T00:30:31.338Z,28.37
2018-11-23T00:33:00.472Z,29.50
2018-11-23T00:35:31.371Z,31.10
2018-11-23T00:38:02.451Z,31.17
2018-11-23T00:40:33.815Z,29.77
2018-11-23T00:43:02.708Z,30.07
2018-11-23T00:45:32.747Z,27.33
2018-11-23T00:48:02.799Z,30.73
2018-11-23T00:50:32.003Z,31.53
2018-11-23T00:53:05.267Z,29.07
2018-11-23T00:55:37.122Z,26.77
2018-11-23T00:58:05.680Z,29.67
2018-11-23T01:00:35.152Z,27.93
2018-11-23T01:03:04.987Z,30.53
2018-11-23T01:05:34.059Z,31.07
2018-11-23T01:08:02.686Z,27.37
2018-11-23T01:10:31.521Z,28.77
2018-11-23T01:13:00.227Z,29.93
2018-11-23T01:15:28.753Z,31.70
2018-11-23T01:17:57.336Z,27.20
2018-11-23T01:20:27.151Z,32.23
2018-11-23T01:22:56.321Z,29.80
2018-11-23T01:25:25.906Z,31.60
2018-11-23T01:27:55.272Z,28.43
2018-11-23T01:30:25.122Z,31.57
2018-11-23T01:32:53.692Z,31.03
2018-11-23T01:35:22.238Z,30.07
2018-11-23T01:37:50.875Z,32.37
2018-11-23T01:40:22.331Z,32.03
2018-11-23T01:42:50.825Z,29.40
2018-11-23T01:45:19.447Z,32.90
2018-11-23T01:47:47.988Z,30.03
2018-11-23T01:50:18.592Z,33.03
2018-11-23T01:52:48.276Z,30.17
2018-11-23T01:55:17.604Z,34.33
2018-11-23T01:57:46.644Z,32.27
2018-11-23T02:00:30.616Z,34.73
2018-11-23T02:02:59.178Z,32.27
2018-11-23T02:05:27.721Z,33.43
2018-11-23T02:07:56.262Z,32.03
2018-11-23T02:10:24.776Z,32.20
2018-11-23T02:12:53.333Z,29.93
2018-11-23T02:15:22.733Z,32.10
2018-11-23T02:17:51.561Z,32.67
2018-11-23T02:20:21.021Z,31.63
2018-11-23T02:22:49.535Z,30.63
2018-11-23T02:25:18.103Z,31.67
2018-11-23T02:27:46.661Z,32.20
2018-11-23T02:30:17.972Z,30.67
2018-11-23T02:32:46.605Z,32.33
2018-11-23T02:35:15.791Z,32.63
2018-11-23T02:37:44.365Z,35.43
2018-11-23T02:40:14.116Z,30.37
2018-11-23T02:42:42.732Z,31.77
2018-11-23T02:45:14.897Z,32.33
2018-11-23T02:47:44.408Z,30.23
2018-11-23T02:50:13.008Z,37.83
2018-11-23T02:52:42.022Z,31.60
2018-11-23T02:55:11.984Z,35.43
2018-11-23T02:57:40.547Z,32.80
2018-11-23T03:00:13.256Z,36.17
2018-11-23T03:02:41.876Z,33.90
2018-11-23T03:05:13.268Z,35.50
2018-11-23T03:07:42.340Z,33.23
2018-11-23T03:10:12.287Z,31.33
2018-11-23T03:12:41.803Z,32.27
2018-11-23T03:15:12.164Z,33.50
2018-11-23T03:17:40.922Z,32.77
2018-11-23T03:20:13.490Z,33.20
2018-11-23T03:22:42.116Z,33.50
2018-11-23T03:25:11.636Z,34.07
2018-11-23T03:27:40.227Z,33.67
2018-11-23T03:30:15.207Z,34.93
2018-11-23T03:32:44.289Z,35.97
2018-11-23T03:35:12.977Z,36.83
2018-11-23T03:37:41.601Z,38.27
2018-11-23T03:40:10.159Z,36.47
2018-11-23T03:42:38.695Z,35.93
2018-11-23T03:45:09.133Z,38.77
2018-11-23T03:47:37.798Z,42.80
2018-11-23T03:50:07.322Z,37.50
2018-11-23T03:52:35.872Z,33.00
2018-11-23T03:55:04.554Z,40.63
2018-11-23T03:57:33.072Z,35.27
2018-11-23T04:00:01.564Z,42.13
2018-11-23T04:02:30.097Z,39.80
2018-11-23T04:04:58.765Z,38.00
2018-11-23T04:07:27.307Z,36.43
2018-11-23T04:09:55.796Z,39.50
2018-11-23T04:12:24.330Z,40.60
2018-11-23T04:14:52.927Z,37.37
2018-11-23T04:17:21.420Z,36.40
2018-11-23T04:19:49.953Z,41.10
2018-11-23T04:22:19.258Z,43.87
2018-11-23T04:24:47.236Z,41.48
2018-11-23T04:27:15.819Z,42.77
2018-11-23T04:29:44.353Z,40.43
2018-11-23T04:32:12.926Z,37.27
2018-11-23T04:34:41.463Z,37.27
2018-11-23T04:37:09.988Z,36.27
2018-11-23T04:39:38.480Z,36.10
2018-11-23T04:42:07.031Z,36.73
2018-11-23T04:44:35.595Z,40.37
2018-11-23T04:47:04.201Z,37.40
2018-11-23T04:49:32.758Z,40.90
2018-11-23T04:52:01.343Z,43.10
2018-11-23T04:54:30.004Z,44.60
2018-11-23T04:56:58.636Z,43.83
2018-11-23T04:59:27.231Z,43.07
2018-11-23T05:01:55.791Z,42.37
2018-11-23T05:04:24.555Z,40.50
2018-11-23T05:06:53.096Z,44.53
2018-11-23T05:09:21.708Z,40.80
2018-11-23T05:11:50.381Z,43.33
2018-11-23T05:14:18.995Z,40.27
2018-11-23T05:16:47.560Z,38.17
2018-11-23T05:19:16.100Z,36.90
2018-11-23T05:21:44.634Z,36.63
2018-11-23T05:24:13.233Z,38.17
2018-11-23T05:26:41.815Z,33.83
2018-11-23T05:29:10.445Z,39.40
2018-11-23T05:31:38.978Z,36.73
2018-11-23T05:34:07.537Z,41.07
2018-11-23T05:36:36.081Z,39.57
2018-11-23T05:39:06.345Z,38.87
2018-11-23T05:41:34.890Z,40.67
2018-11-23T05:44:03.476Z,42.27
2018-11-23T05:46:32.130Z,44.63
2018-11-23T05:49:00.665Z,40.63
2018-11-23T05:51:29.259Z,41.07
2018-11-23T05:53:57.888Z,37.83
2018-11-23T05:56:26.463Z,37.37
2018-11-23T05:58:55.039Z,36.13
2018-11-23T06:01:23.639Z,42.23
2018-11-23T06:03:52.230Z,37.50
2018-11-23T06:06:20.837Z,42.97
2018-11-23T06:08:49.495Z,45.53
2018-11-23T06:11:18.080Z,40.83
2018-11-23T06:13:46.816Z,41.77
2018-11-23T06:16:15.391Z,42.10
2018-11-23T06:18:44.040Z,42.33
2018-11-23T06:21:12.762Z,42.23
2018-11-23T06:23:41.417Z,41.97
2018-11-23T06:26:16.269Z,40.93
2018-11-23T06:28:45.101Z,43.03
2018-11-23T06:31:13.953Z,40.73
2018-11-23T06:33:44.799Z,39.20
2018-11-23T06:36:13.352Z,45.17
2018-11-23T06:38:42.858Z,47.33
2018-11-23T06:41:11.581Z,44.27
2018-11-23T06:43:40.179Z,47.30
2018-11-23T06:46:09.979Z,47.13
2018-11-23T06:48:38.561Z,43.97
2018-11-23T06:51:07.366Z,41.63
2018-11-23T06:53:35.985Z,43.10
2018-11-23T06:56:05.094Z,43.47
2018-11-23T06:58:33.740Z,45.30
2018-11-23T07:01:02.292Z,43.77
2018-11-23T07:03:30.939Z,44.67
2018-11-23T07:06:00.108Z,38.57
2018-11-23T07:11:14.094Z,39.27
2018-11-23T07:13:42.713Z,42.47
2018-11-23T07:16:17.920Z,43.00
2018-11-23T07:18:46.684Z,43.40
2018-11-23T07:21:21.243Z,42.90
2018-11-23T07:23:44.171Z,39.93
2018-11-23T07:26:13.018Z,43.97
2018-11-23T07:28:41.538Z,42.67
2018-11-23T07:31:10.393Z,41.23
2018-11-23T07:33:39.052Z,41.77
2018-11-23T07:36:07.671Z,41.70
2018-11-23T07:38:36.330Z,36.73
2018-11-23T07:41:16.240Z,37.23
2018-11-23T07:43:44.859Z,39.37
2018-11-23T07:46:13.515Z,39.47
2018-11-23T07:48:42.076Z,42.70
2018-11-23T07:51:10.873Z,43.27
2018-11-23T07:53:39.500Z,42.20
2018-11-23T07:56:08.204Z,35.63
2018-11-23T07:58:36.787Z,32.77
2018-11-23T08:01:05.407Z,35.17
2018-11-23T08:03:33.883Z,31.03
2018-11-23T08:06:02.508Z,33.87
2018-11-23T08:08:31.042Z,29.77
2018-11-23T08:10:58.643Z,27.87
2018-11-23T08:13:27.145Z,30.47
2018-11-23T08:15:55.752Z,28.93
2018-11-23T08:18:24.365Z,28.10
2018-11-23T08:20:52.852Z,29.83
2018-11-23T08:23:21.334Z,26.27
2018-11-23T08:25:50.026Z,28.00
2018-11-23T08:28:18.505Z,27.67
2018-11-23T08:30:47.101Z,29.80
2018-11-23T08:33:15.621Z,29.80
2018-11-23T08:35:44.267Z,27.80
2018-11-23T08:38:12.833Z,27.90
2018-11-23T08:40:41.518Z,26.93
2018-11-23T08:43:10.116Z,29.70
2018-11-23T08:45:38.731Z,26.53
2018-11-23T08:48:07.347Z,28.83
2018-11-23T08:50:36.063Z,26.07
2018-11-23T08:53:04.630Z,29.73
2018-11-23T08:55:33.285Z,31.17
2018-11-23T08:58:01.913Z,27.70
2018-11-23T09:00:30.436Z,28.20
2018-11-23T09:03:00.435Z,27.50
2018-11-23T09:05:28.947Z,22.97
2018-11-23T09:07:57.963Z,25.30
2018-11-23T09:10:28.440Z,23.00
2018-11-23T09:12:59.684Z,24.60
2018-11-23T09:15:28.339Z,25.80
2018-11-23T09:17:56.944Z,24.97
2018-11-23T09:20:25.496Z,22.83
2018-11-23T09:22:54.214Z,23.67
2018-11-23T09:25:23.631Z,25.00
2018-11-23T09:27:53.754Z,21.83
2018-11-23T09:30:23.759Z,22.63
2018-11-23T09:32:53.511Z,25.50
2018-11-23T09:35:22.125Z,23.70
2018-11-23T09:37:51.631Z,22.73
2018-11-23T09:40:21.359Z,23.90
2018-11-23T09:42:50.211Z,23.27
2018-11-23T09:45:21.968Z,24.87
2018-11-23T09:47:51.607Z,22.40
2018-11-23T09:50:21.269Z,22.83
2018-11-23T09:52:50.940Z,23.43
2018-11-23T09:55:20.233Z,21.13
2018-11-23T09:57:48.845Z,21.93
2018-11-23T10:00:20.834Z,23.07
2018-11-23T10:02:52.411Z,22.30
2018-11-23T10:05:21.513Z,22.97
2018-11-23T10:07:54.105Z,24.23
2018-11-23T10:10:23.413Z,22.53
2018-11-23T10:12:51.904Z,22.63
2018-11-23T10:15:21.269Z,23.37
2018-11-23T10:17:49.783Z,21.07
2018-11-23T10:20:24.737Z,21.17
2018-11-23T10:22:53.894Z,22.57
2018-11-23T10:25:24.716Z,20.53
2018-11-23T10:27:53.712Z,20.93
2018-11-23T10:30:25.882Z,22.00
2018-11-23T10:32:57.114Z,22.07
2018-11-23T10:35:26.188Z,21.17
2018-11-23T10:37:56.260Z,20.90
2018-11-23T10:40:26.430Z,21.85
2018-11-23T10:42:55.110Z,24.83
2018-11-23T10:45:25.363Z,23.17
2018-11-23T10:47:54.887Z,22.15
2018-11-23T10:50:24.930Z,20.15
2018-11-23T10:52:53.950Z,21.97
2018-11-23T10:55:23.904Z,21.35
2018-11-23T10:57:53.010Z,20.80
2018-11-23T11:00:26.843Z,19.65
2018-11-23T11:03:00.887Z,20.85
2018-11-23T11:05:34.797Z,20.30
2018-11-23T11:08:04.229Z,19.55
2018-11-23T11:10:32.977Z,19.92
2018-11-23T11:13:01.694Z,20.23
2018-11-23T11:15:30.335Z,18.10
2018-11-23T11:17:59.001Z,19.48
2018-11-23T11:20:27.784Z,20.50
2018-11-23T11:22:56.722Z,20.55
2018-11-23T11:25:25.392Z,21.40
2018-11-23T11:27:54.213Z,19.23
2018-11-23T11:30:22.971Z,19.40
2018-11-23T11:32:51.708Z,16.97
2018-11-23T11:35:20.449Z,16.77
2018-11-23T11:37:49.307Z,19.20
2018-11-23T11:40:18.981Z,15.40
2018-11-23T11:42:47.617Z,15.75
2018-11-23T11:45:17.521Z,16.42
2018-11-23T11:47:46.872Z,14.83
2018-11-23T11:50:15.876Z,16.10
2018-11-23T11:52:46.343Z,15.98
2018-11-23T11:55:18.675Z,15.05
2018-11-23T11:57:47.864Z,16.90
2018-11-23T12:00:18.921Z,18.75
2018-11-23T12:02:48.069Z,17.07
2018-11-23T12:05:16.676Z,14.18
2018-11-23T12:07:45.448Z,14.25
2018-11-23T12:10:19.196Z,14.13
2018-11-23T12:12:47.756Z,13.55
2018-11-23T12:15:16.833Z,13.18
2018-11-23T12:17:45.357Z,12.98
2018-11-23T12:20:15.754Z,11.78
2018-11-23T12:22:44.779Z,9.98
2018-11-23T12:25:14.082Z,9.68
2018-11-23T12:27:42.761Z,10.05
2018-11-23T12:30:14.257Z,9.78
2018-11-23T12:32:43.850Z,9.15
2018-11-23T12:35:13.770Z,8.93
2018-11-23T12:37:42.493Z,9.90
2018-11-23T12:40:12.621Z,9.53
2018-11-23T12:42:41.380Z,11.60
2018-11-23T12:45:12.350Z,11.27
2018-11-23T12:47:41.032Z,11.00
2018-11-23T12:50:15.821Z,10.93
2018-11-23T12:52:44.544Z,11.30
2018-11-23T12:55:14.103Z,11.27
2018-11-23T12:57:43.121Z,10.97
2018-11-23T13:00:23.024Z,10.17
2018-11-23T13:03:00.119Z,9.83
2018-11-23T13:05:29.691Z,9.80
2018-11-23T13:08:04.275Z,9.20
2018-11-23T13:10:34.096Z,8.93
2018-11-23T13:13:07.043Z,8.33
2018-11-23T13:15:37.132Z,9.50
2018-11-23T13:18:07.401Z,9.37
2018-11-23T13:20:36.392Z,8.73
2018-11-23T13:23:05.673Z,11.00
2018-11-23T13:25:35.088Z,10.80
2018-11-23T13:28:04.381Z,9.90
2018-11-23T13:30:37.212Z,9.47
2018-11-23T13:33:07.194Z,8.97
2018-11-23T13:35:36.501Z,8.43
2018-11-23T13:38:05.834Z,8.37
2018-11-23T13:40:34.965Z,9.53
2018-11-23T13:43:03.695Z,6.63
2018-11-23T13:45:33.448Z,6.93
2018-11-23T13:48:02.070Z,8.87
2018-11-23T13:50:31.185Z,6.60
2018-11-23T13:53:01.235Z,6.60
2018-11-23T13:55:29.896Z,7.20
2018-11-23T13:57:58.673Z,6.97
2018-11-23T14:00:29.109Z,8.80
2018-11-23T14:02:57.903Z,9.57
2018-11-23T14:05:28.473Z,8.87
2018-11-23T14:07:58.676Z,9.40
2018-11-23T14:10:28.248Z,9.13
2018-11-23T14:12:57.210Z,10.13
2018-11-23T14:15:27.187Z,10.90
2018-11-23T14:17:57.002Z,10.73
2018-11-23T14:20:26.390Z,9.83
2018-11-23T14:22:55.243Z,8.93
2018-11-23T14:25:25.388Z,9.67
2018-11-23T14:27:54.901Z,8.70
2018-11-23T14:30:25.418Z,8.43
2018-11-23T14:32:54.250Z,7.57
2018-11-23T14:35:25.376Z,7.90
2018-11-23T14:37:55.188Z,11.30
2018-11-23T14:40:23.987Z,9.53
2018-11-23T14:42:53.397Z,8.17
2018-11-23T14:45:25.663Z,9.30
2018-11-23T14:47:55.436Z,8.77
2018-11-23T14:50:25.862Z,8.57
2018-11-23T14:52:55.600Z,7.83
2018-11-23T14:55:24.491Z,8.70
2018-11-23T14:57:53.893Z,11.13
2018-11-23T15:00:25.505Z,8.83
2018-11-23T15:02:55.669Z,9.33
2018-11-23T15:05:24.352Z,9.13
2018-11-23T15:07:52.989Z,11.10
2018-11-23T15:10:23.131Z,10.93
2018-11-23T15:12:53.301Z,12.07
2018-11-23T15:15:23.356Z,10.83
2018-11-23T15:17:52.728Z,9.30
2018-11-23T15:20:26.441Z,10.53
2018-11-23T15:22:57.116Z,10.40
2018-11-23T15:25:25.832Z,11.07
2018-11-23T15:27:54.708Z,9.63
2018-11-23T15:30:25.573Z,12.97
2018-11-23T15:32:54.616Z,8.90
2018-11-23T15:35:23.309Z,9.97
2018-11-23T15:37:52.158Z,11.07
2018-11-23T15:40:23.328Z,14.63
2018-11-23T15:42:53.588Z,10.40
2018-11-23T15:45:23.681Z,13.53
2018-11-23T15:47:52.629Z,13.37
2018-11-23T15:50:22.896Z,11.30
2018-11-23T15:52:51.734Z,10.97
2018-11-23T15:55:22.663Z,11.73
2018-11-23T15:57:52.274Z,11.40
2018-11-23T16:00:24.402Z,13.60
2018-11-23T16:02:53.958Z,15.07
2018-11-23T16:05:22.994Z,13.87
2018-11-23T16:07:52.724Z,13.07
2018-11-23T16:10:28.041Z,15.30
2018-11-23T16:12:58.019Z,11.97
2018-11-23T16:15:28.482Z,14.67
2018-11-23T16:17:57.930Z,16.60
2018-11-23T16:20:29.466Z,14.07
2018-11-23T16:23:00.040Z,20.27
2018-11-23T16:25:29.015Z,16.87
2018-11-23T16:28:00.461Z,17.27
2018-11-23T16:30:31.613Z,15.80
2018-11-23T16:33:01.538Z,19.10
2018-11-23T16:35:32.699Z,15.97
2018-11-23T16:38:03.064Z,17.63
2018-11-23T16:40:32.853Z,16.83
2018-11-23T16:43:02.237Z,16.40
2018-11-23T16:45:32.349Z,17.97
2018-11-23T16:48:02.575Z,14.83
2018-11-23T16:50:32.041Z,14.87
2018-11-23T16:53:00.915Z,15.90
2018-11-23T16:55:30.535Z,16.70
2018-11-23T16:58:01.405Z,15.57
2018-11-23T17:00:31.472Z,18.70
2018-11-23T17:03:01.658Z,17.20
2018-11-23T17:05:32.019Z,16.67
2018-11-23T17:08:00.922Z,15.67
2018-11-23T17:10:32.161Z,16.67
2018-11-23T17:13:00.813Z,19.07
2018-11-23T17:15:29.983Z,18.70
2018-11-23T17:17:58.724Z,20.30
2018-11-23T17:20:33.560Z,17.60
2018-11-23T17:23:03.674Z,18.80
2018-11-23T17:25:32.702Z,20.93
2018-11-23T17:28:03.179Z,20.83
2018-11-23T17:30:32.815Z,21.67
2018-11-23T17:33:01.767Z,18.53
2018-11-23T17:35:30.565Z,17.97
2018-11-23T17:37:59.242Z,18.73
2018-11-23T17:40:29.493Z,17.40
2018-11-23T17:42:58.528Z,19.47
2018-11-23T17:45:29.014Z,17.83
2018-11-23T17:47:57.761Z,17.33
2018-11-23T17:50:27.849Z,17.17
2018-11-23T17:52:57.116Z,19.40
2018-11-23T17:55:25.902Z,17.40
2018-11-23T17:57:55.386Z,17.57
2018-11-23T18:00:26.452Z,18.33
2018-11-23T18:02:55.985Z,19.30
2018-11-23T18:05:25.577Z,21.87
2018-11-23T18:07:54.725Z,19.67
2018-11-23T18:10:27.707Z,21.80
2018-11-23T18:12:57.308Z,20.67
2018-11-23T18:15:27.904Z,22.37
2018-11-23T18:17:57.552Z,19.97
2018-11-23T18:20:27.056Z,25.40
2018-11-23T18:22:56.560Z,21.73
2018-11-23T18:25:40.831Z,22.23
2018-11-23T18:28:09.453Z,23.30
2018-11-23T18:30:38.090Z,19.90
2018-11-23T18:33:08.469Z,21.10
2018-11-23T18:35:37.269Z,21.20
2018-11-23T18:38:06.004Z,21.50
2018-11-23T18:40:37.553Z,20.77
2018-11-23T18:43:05.074Z,23.53
2018-11-23T18:45:35.531Z,22.93
2018-11-23T18:48:05.203Z,19.70
2018-11-23T18:50:35.443Z,22.00
2018-11-23T18:53:06.495Z,22.73
2018-11-23T18:55:35.689Z,23.80
2018-11-23T18:58:05.008Z,20.17
2018-11-23T19:00:34.041Z,23.70
2018-11-23T19:03:03.487Z,23.90
2018-11-23T19:05:32.243Z,23.37
2018-11-23T19:08:01.124Z,19.17
2018-11-23T19:10:30.076Z,22.33
2018-11-23T19:12:59.502Z,21.60
2018-11-23T19:15:29.210Z,22.97
2018-11-23T19:18:11.314Z,18.93
2018-11-23T19:20:40.319Z,19.57
2018-11-23T19:23:09.640Z,21.27
2018-11-23T19:25:38.281Z,22.73
2018-11-23T19:28:07.722Z,20.80
2018-11-23T19:30:36.698Z,26.43
2018-11-23T19:33:05.396Z,19.93
2018-11-23T19:35:35.769Z,22.70
2018-11-23T19:38:04.642Z,23.10
2018-11-23T19:40:33.609Z,21.70
2018-11-23T19:43:02.779Z,21.30
2018-11-23T19:45:31.756Z,21.77
2018-11-23T19:48:00.372Z,20.00
2018-11-23T19:50:28.882Z,21.97
2018-11-23T19:52:57.588Z,25.10
2018-11-23T19:55:26.372Z,22.10
2018-11-23T19:57:55.390Z,22.30
2018-11-23T20:00:25.560Z,20.90
2018-11-23T20:02:54.829Z,24.20
2018-11-23T20:05:23.622Z,21.17
2018-11-23T20:07:55.155Z,21.97
2018-11-23T20:10:24.580Z,21.97
2018-11-23T20:12:56.159Z,21.43
2018-11-23T20:15:25.917Z,24.17
2018-11-23T20:17:54.655Z,25.27
2018-11-23T20:20:24.532Z,24.73
2018-11-23T20:22:53.365Z,25.43
2018-11-23T20:25:21.944Z,21.90
2018-11-23T20:27:51.732Z,21.57
2018-11-23T20:30:20.486Z,23.97
2018-11-23T20:32:49.082Z,20.13
2018-11-23T20:35:18.765Z,21.33
2018-11-23T20:37:47.877Z,22.23
2018-11-23T20:40:18.692Z,42.63
2018-11-23T20:42:47.618Z,26.97
2018-11-23T20:45:16.482Z,26.30
2018-11-23T20:47:45.407Z,22.97
2018-11-23T20:50:15.173Z,23.43
2018-11-23T20:52:43.814Z,21.03
2018-11-23T20:55:13.648Z,22.80
2018-11-23T20:57:42.223Z,20.60
2018-11-23T21:00:13.256Z,18.20
2018-11-23T21:02:41.928Z,22.97
2018-11-23T21:05:12.198Z,21.37
2018-11-23T21:07:40.796Z,20.47
2018-11-23T21:10:20.484Z,22.57
2018-11-23T21:12:44.633Z,24.13
2018-11-23T21:15:30.818Z,25.50
2018-11-23T21:18:02.603Z,22.07
2018-11-23T21:20:31.224Z,21.93
2018-11-23T21:22:59.804Z,21.80
2018-11-23T21:25:28.392Z,20.90
2018-11-23T21:27:56.990Z,22.87
2018-11-23T21:30:25.586Z,20.90
2018-11-23T21:32:55.316Z,22.47
2018-11-23T21:35:23.912Z,21.47
2018-11-23T21:37:52.506Z,23.90
2018-11-23T21:40:21.083Z,21.43
2018-11-23T21:42:49.742Z,19.87
2018-11-23T21:45:19.595Z,22.23
2018-11-23T21:47:49.419Z,19.57
2018-11-23T21:50:25.023Z,20.07
2018-11-23T21:52:48.647Z,22.27
2018-11-23T21:55:20.443Z,20.90
2018-11-23T21:57:49.105Z,19.70
2018-11-23T22:00:17.738Z,20.03
2018-11-23T22:02:46.362Z,21.30
2018-11-23T22:05:14.927Z,22.40
2018-11-23T22:07:43.528Z,21.97
2018-11-23T22:10:14.348Z,23.67
2018-11-23T22:12:43.020Z,23.37
2018-11-23T22:15:13.610Z,23.33
2018-11-23T22:17:42.149Z,20.43
2018-11-23T22:20:14.519Z,20.23
2018-11-23T22:22:43.074Z,22.17
2018-11-23T22:25:14.799Z,22.83
2018-11-23T22:27:43.525Z,26.50
2018-11-23T22:30:13.468Z,20.23
2018-11-23T22:32:41.995Z,24.77
2018-11-23T22:35:11.456Z,23.63
2018-11-23T22:37:39.979Z,22.67
2018-11-23T22:40:18.951Z,18.53
2018-11-23T22:42:48.601Z,20.83
2018-11-23T22:45:17.594Z,21.77
2018-11-23T22:47:46.096Z,19.77
2018-11-23T22:50:17.585Z,21.50
2018-11-23T22:52:46.091Z,23.30
2018-11-23T22:55:15.569Z,19.67
2018-11-23T22:57:44.108Z,22.47
2018-11-23T23:00:26.453Z,19.60
2018-11-23T23:02:54.951Z,18.50
2018-11-23T23:05:24.400Z,24.67
2018-11-23T23:07:52.878Z,22.17
2018-11-23T23:10:21.368Z,16.30
2018-11-23T23:12:49.819Z,18.33
2018-11-23T23:15:18.361Z,20.00
2018-11-23T23:17:46.812Z,20.50
2018-11-23T23:20:18.652Z,19.20
2018-11-23T23:22:47.054Z,19.27
2018-11-23T23:25:15.571Z,18.23
2018-11-23T23:27:44.131Z,20.87
2018-11-23T23:30:13.679Z,24.17
2018-11-23T23:32:42.253Z,18.37
2018-11-23T23:35:12.033Z,19.57
2018-11-23T23:37:40.833Z,17.17
2018-11-23T23:40:12.340Z,21.20
2018-11-23T23:42:40.890Z,18.90
2018-11-23T23:45:11.481Z,18.80
2018-11-23T23:47:40.009Z,20.17
2018-11-23T23:50:15.066Z,20.00
2018-11-23T23:52:43.545Z,18.97
2018-11-23T23:55:12.131Z,20.63
2018-11-23T23:57:41.691Z,21.50
